Time;durP1;ratioP1;P1;durP2;ratioP2;P2;SDS_P1;SDS_P2;PMS_P1;PMS_P2;Temp;Humidity;BMP_temperature;BMP_pressure;BME280_temperature;BME280_humidity;BME280_pressure;Samples;Min_cycle;Max_cycle;Signal;HPM_P1;HPM_P2
2023/04/02 00:01:54;;;;;;;2.70;0.95;;;1.20;99.90;;;;;;5001833;28;20083;-82
2023/04/02 00:04:21;;;;;;;2.35;1.00;;;1.20;99.90;;;;;;5004602;28;21436;-81
2023/04/02 00:06:53;;;;;;;4.47;1.02;;;1.20;99.90;;;;;;4995583;28;20026;-81
2023/04/02 00:09:31;;;;;;;2.92;1.38;;;1.20;99.90;;;;;;5003617;28;20026;-81
2023/04/02 00:11:59;;;;;;;5.95;0.90;;;1.20;99.90;;;;;;5002545;28;20126;-81
2023/04/02 00:14:28;;;;;;;1.77;1.00;;;1.20;99.90;;;;;;5005695;28;20167;-82
2023/04/02 00:16:56;;;;;;;2.88;1.00;;;1.20;99.90;;;;;;4986987;28;20385;-81
2023/04/02 00:19:48;;;;;;;1.27;0.95;;;1.20;99.90;;;;;;4992844;28;20389;-81
2023/04/02 00:22:17;;;;;;;3.03;1.10;;;1.20;99.90;;;;;;4990166;28;20057;-81
2023/04/02 00:24:43;;;;;;;3.97;0.80;;;1.20;99.90;;;;;;5021022;28;20759;-81
2023/04/02 00:27:13;;;;;;;3.97;1.30;;;1.20;99.90;;;;;;5003406;28;20034;-81
2023/04/02 00:29:51;;;;;;;2.05;1.20;;;1.20;99.90;;;;;;5025516;28;20030;-82
2023/04/02 00:32:36;;;;;;;3.72;0.80;;;1.20;99.90;;;;;;4992873;28;20034;-80
2023/04/02 00:35:03;;;;;;;4.82;0.88;;;1.20;99.90;;;;;;4987197;28;20424;-81
2023/04/02 00:37:37;;;;;;;5.35;1.08;;;1.30;99.90;;;;;;5009911;28;20034;-80
2023/04/02 00:40:23;;;;;;;3.15;1.00;;;1.30;99.90;;;;;;5010912;28;20087;-81
2023/04/02 00:42:49;;;;;;;3.05;0.88;;;1.30;99.90;;;;;;5011936;28;20034;-81
2023/04/02 00:45:34;;;;;;;1.77;1.10;;;1.20;99.90;;;;;;4997870;28;20255;-83
2023/04/02 00:48:24;;;;;;;4.40;1.00;;;1.20;99.90;;;;;;5005031;28;20014;-82
2023/04/02 00:50:53;;;;;;;4.80;0.95;;;1.20;99.90;;;;;;4996559;28;20019;-80
2023/04/02 00:53:27;;;;;;;4.43;0.90;;;1.30;99.90;;;;;;4990603;28;20023;-80
2023/04/02 00:55:54;;;;;;;3.15;1.08;;;1.20;99.90;;;;;;5000187;28;20033;-81
2023/04/02 00:58:28;;;;;;;3.17;0.98;;;1.30;99.90;;;;;;5003196;28;20113;-80
2023/04/02 01:00:55;;;;;;;3.83;1.00;;;1.20;99.90;;;;;;4999097;28;20034;-80
2023/04/02 01:03:27;;;;;;;4.35;1.13;;;1.20;99.90;;;;;;5003232;28;20534;-81
2023/04/02 01:06:01;;;;;;;5.15;1.17;;;1.20;99.90;;;;;;5003633;28;20124;-80
2023/04/02 01:08:51;;;;;;;2.00;1.00;;;1.20;99.90;;;;;;5003206;28;20402;-81
2023/04/02 01:11:54;;;;;;;1.48;0.77;;;1.20;99.90;;;;;;5001625;28;20022;-80
2023/04/02 01:14:49;;;;;;;3.03;1.13;;;1.20;99.90;;;;;;4996290;28;20057;-80
2023/04/02 01:17:33;;;;;;;1.77;0.70;;;1.20;99.90;;;;;;4998504;28;20022;-81
2023/04/02 01:20:26;;;;;;;4.38;1.02;;;1.20;99.90;;;;;;5008507;28;20285;-80
2023/04/02 01:23:08;;;;;;;3.28;0.85;;;1.10;99.90;;;;;;5004134;28;20038;-80
2023/04/02 01:25:42;;;;;;;2.72;0.90;;;1.10;99.90;;;;;;4986593;28;20035;-80
2023/04/02 01:28:36;;;;;;;1.40;0.68;;;1.10;99.90;;;;;;5003085;28;20022;-81
2023/04/02 01:31:03;;;;;;;2.95;0.73;;;1.10;99.90;;;;;;5005137;28;20037;-81
2023/04/02 01:33:32;;;;;;;2.35;1.13;;;1.10;99.90;;;;;;5014096;28;20026;-81
2023/04/02 01:36:11;;;;;;;4.75;0.85;;;1.00;99.90;;;;;;4999246;28;20022;-80
2023/04/02 01:38:45;;;;;;;3.10;1.23;;;1.00;99.90;;;;;;4990294;28;20617;-81
2023/04/02 01:41:25;;;;;;;5.57;1.20;;;1.00;99.90;;;;;;4995099;28;20030;-80
2023/04/02 01:44:06;;;;;;;2.60;1.17;;;1.00;99.90;;;;;;5005899;28;20128;-80
2023/04/02 01:46:34;;;;;;;3.58;1.13;;;0.90;99.90;;;;;;4992447;28;20321;-81
2023/04/02 01:49:10;;;;;;;2.60;1.38;;;0.90;99.90;;;;;;5011517;28;20030;-81
2023/04/02 01:51:43;;;;;;;2.35;0.85;;;0.90;99.90;;;;;;4986946;28;20080;-80
2023/04/02 01:54:11;;;;;;;4.30;0.88;;;0.90;99.90;;;;;;5007819;28;20060;-81
2023/04/02 01:56:37;;;;;;;6.38;1.38;;;0.90;99.90;;;;;;4994304;28;20392;-82
2023/04/02 01:59:04;;;;;;;1.40;0.65;;;0.90;99.90;;;;;;5005993;28;20500;-81
2023/04/02 02:02:00;;;;;;;1.65;0.80;;;0.80;99.90;;;;;;5005373;28;20034;-81
2023/04/02 02:04:26;;;;;;;1.77;0.73;;;0.80;99.90;;;;;;5008797;28;20732;-80
2023/04/02 02:06:51;;;;;;;3.40;1.00;;;0.80;99.90;;;;;;5010319;28;20034;-81
2023/04/02 02:09:22;;;;;;;1.02;0.75;;;0.80;99.90;;;;;;5002448;28;20042;-80
2023/04/02 02:11:49;;;;;;;5.18;0.80;;;0.80;99.90;;;;;;5001060;28;20084;-80
2023/04/02 02:14:18;;;;;;;2.85;0.90;;;0.80;99.90;;;;;;5023118;28;20052;-81
2023/04/02 02:16:46;;;;;;;2.80;0.95;;;0.80;99.90;;;;;;4996884;28;20058;-81
2023/04/02 02:19:23;;;;;;;1.95;0.80;;;0.70;99.90;;;;;;4999510;28;20026;-80
2023/04/02 02:21:55;;;;;;;3.08;1.02;;;0.70;99.90;;;;;;4996149;28;20083;-79
2023/04/02 02:24:29;;;;;;;2.25;0.57;;;0.70;99.90;;;;;;4995867;28;20038;-80
2023/04/02 02:27:21;;;;;;;2.65;1.10;;;0.70;99.90;;;;;;5001690;28;20038;-81
2023/04/02 02:29:55;;;;;;;1.90;0.82;;;0.70;99.90;;;;;;4995931;28;20034;-81
2023/04/02 02:32:26;;;;;;;1.63;0.80;;;0.60;99.90;;;;;;4997768;28;20425;-81
2023/04/02 02:34:59;;;;;;;5.70;1.17;;;0.60;99.90;;;;;;5004632;28;20034;-80
2023/04/02 02:37:29;;;;;;;1.92;0.65;;;0.60;99.90;;;;;;5009952;28;20026;-80
2023/04/02 02:39:59;;;;;;;4.35;0.90;;;0.60;99.90;;;;;;5011053;28;20026;-81
2023/04/02 02:42:32;;;;;;;4.68;1.20;;;0.50;99.90;;;;;;5008466;28;20138;-80
2023/04/02 02:45:02;;;;;;;1.25;0.85;;;0.50;99.90;;;;;;5010117;28;20030;-81
2023/04/02 02:47:31;;;;;;;3.67;1.25;;;0.50;99.90;;;;;;5005447;28;20042;-80
2023/04/02 02:50:02;;;;;;;3.08;0.90;;;0.40;99.90;;;;;;5007900;28;20116;-80
2023/04/02 02:52:33;;;;;;;4.47;0.93;;;0.40;99.90;;;;;;5010112;28;20042;-79
2023/04/02 02:55:10;;;;;;;2.42;0.93;;;0.40;99.90;;;;;;5007097;28;20034;-80
2023/04/02 02:57:45;;;;;;;4.38;0.85;;;0.40;99.90;;;;;;5005100;28;20172;-80
2023/04/02 03:00:12;;;;;;;3.33;0.80;;;0.40;99.90;;;;;;4997885;28;20019;-80
2023/04/02 03:02:40;;;;;;;1.20;0.82;;;0.40;99.90;;;;;;5005259;28;20057;-81
2023/04/02 03:05:06;;;;;;;4.57;1.02;;;0.30;99.90;;;;;;5003544;28;20032;-81
2023/04/02 03:07:32;;;;;;;1.52;0.93;;;0.30;99.90;;;;;;5005886;28;20049;-81
2023/04/02 03:10:13;;;;;;;5.22;0.90;;;0.30;99.90;;;;;;5008214;28;20030;-81
2023/04/02 03:12:51;;;;;;;2.53;0.80;;;0.30;99.90;;;;;;5008630;28;20469;-80
2023/04/02 03:15:21;;;;;;;2.97;1.10;;;0.20;99.90;;;;;;5003581;28;20029;-81
2023/04/02 03:17:56;;;;;;;1.40;0.80;;;0.20;99.90;;;;;;5007566;28;20368;-80
2023/04/02 03:20:36;;;;;;;2.47;0.95;;;0.20;99.90;;;;;;5015172;28;20030;-80
2023/04/02 03:23:27;;;;;;;2.03;0.73;;;0.20;99.90;;;;;;5009253;28;20085;-80
2023/04/02 03:26:16;;;;;;;2.97;1.02;;;0.20;99.90;;;;;;5005950;28;20033;-80
2023/04/02 03:28:56;;;;;;;0.80;0.63;;;0.20;99.90;;;;;;5001105;28;20023;-81
2023/04/02 03:31:26;;;;;;;4.28;0.90;;;0.10;99.90;;;;;;4997349;28;20041;-81
2023/04/02 03:34:25;;;;;;;2.85;1.02;;;0.10;99.90;;;;;;5016835;28;20049;-80
2023/04/02 03:36:57;;;;;;;0.80;0.55;;;0.10;99.90;;;;;;5011543;28;20449;-80
2023/04/02 03:39:41;;;;;;;3.75;1.00;;;0.00;99.90;;;;;;5008205;28;20494;-80
2023/04/02 03:42:18;;;;;;;4.05;1.33;;;0.00;99.90;;;;;;5009285;28;20022;-79
2023/04/02 03:44:51;;;;;;;1.10;0.70;;;-0.10;99.90;;;;;;5006533;28;20034;-81
2023/04/02 03:47:37;;;;;;;5.25;1.42;;;0.00;99.90;;;;;;5008348;28;20030;-80
2023/04/02 03:50:07;;;;;;;7.65;1.10;;;-0.10;99.90;;;;;;5006549;28;20029;-80
2023/04/02 03:52:36;;;;;;;1.75;0.75;;;0.00;99.90;;;;;;5007522;28;20481;-79
2023/04/02 03:55:14;;;;;;;2.40;0.60;;;-0.10;99.90;;;;;;5001974;28;20463;-80
2023/04/02 03:57:51;;;;;;;1.45;1.10;;;-0.10;99.90;;;;;;5003567;28;20025;-80
2023/04/02 04:00:23;;;;;;;1.40;0.75;;;-0.10;99.90;;;;;;4987785;28;20545;-80
2023/04/02 04:02:51;;;;;;;2.83;1.25;;;-0.10;99.90;;;;;;5007925;28;20033;-80
2023/04/02 04:05:35;;;;;;;1.35;0.85;;;-0.10;99.90;;;;;;5000457;28;20026;-80
2023/04/02 04:08:05;;;;;;;3.47;1.30;;;-0.10;99.90;;;;;;5007509;28;20717;-80
2023/04/02 04:10:31;;;;;;;2.20;0.52;;;-0.10;99.90;;;;;;5008689;28;20549;-81
2023/04/02 04:13:04;;;;;;;5.80;0.90;;;-0.10;99.90;;;;;;5010191;28;20033;-79
2023/04/02 04:15:37;;;;;;;4.10;1.05;;;-0.10;99.90;;;;;;5000992;28;20038;-80
2023/04/02 04:18:33;;;;;;;1.63;0.70;;;-0.10;99.90;;;;;;5004308;28;20025;-80
2023/04/02 04:21:15;;;;;;;1.88;0.80;;;-0.10;99.90;;;;;;5023610;28;20083;-79
2023/04/02 04:23:48;;;;;;;5.72;0.93;;;0.00;99.90;;;;;;5024065;28;20029;-80
2023/04/02 04:26:25;;;;;;;4.00;0.98;;;0.10;99.90;;;;;;4998835;28;20025;-80
2023/04/02 04:29:08;;;;;;;;;;;0.10;99.90;;;;;;5008231;28;20145;-80
2023/04/02 04:31:48;;;;;;;1.00;0.40;;;0.20;99.90;;;;;;5001684;28;19921;-80
2023/04/02 04:34:28;;;;;;;7.38;1.10;;;0.20;99.90;;;;;;5003148;28;20109;-80
2023/04/02 04:37:00;;;;;;;1.58;0.60;;;0.30;99.90;;;;;;5010866;28;20022;-80
2023/04/02 04:39:48;;;;;;;1.20;0.73;;;0.30;99.90;;;;;;5003936;28;20030;-80
2023/04/02 04:42:21;;;;;;;1.40;1.00;;;0.40;99.90;;;;;;5006967;28;20029;-80
2023/04/02 04:44:59;;;;;;;1.65;0.70;;;0.40;99.90;;;;;;5007331;28;20039;-80
2023/04/02 04:47:54;;;;;;;3.30;0.85;;;0.50;99.90;;;;;;5005860;28;20027;-80
2023/04/02 04:50:41;;;;;;;1.92;0.73;;;0.50;99.90;;;;;;5000094;28;20037;-81
2023/04/02 04:53:15;;;;;;;3.72;0.60;;;0.60;99.90;;;;;;5003735;28;20069;-81
2023/04/02 04:55:46;;;;;;;3.05;0.85;;;0.70;99.90;;;;;;5010821;28;20030;-80
2023/04/02 04:58:23;;;;;;;4.03;0.80;;;0.80;99.90;;;;;;5005532;28;20028;-79
2023/04/02 05:01:14;;;;;;;2.05;0.80;;;0.80;99.90;;;;;;4994527;28;20035;-80
2023/04/02 05:03:43;;;;;;;2.95;0.73;;;0.80;99.90;;;;;;5001935;28;20030;-80
2023/04/02 05:06:24;;;;;;;0.95;0.52;;;1.00;99.90;;;;;;5002129;28;20028;-80
2023/04/02 05:08:55;;;;;;;3.65;0.63;;;1.00;99.90;;;;;;5005864;28;20038;-80
2023/04/02 05:11:29;;;;;;;0.55;0.45;;;1.10;99.90;;;;;;5012061;28;20032;-80
2023/04/02 05:14:01;;;;;;;4.93;0.98;;;1.10;99.90;;;;;;5008620;28;20066;-80
2023/04/02 05:16:55;;;;;;;1.13;0.50;;;1.20;99.90;;;;;;5012982;28;20349;-81
2023/04/02 05:19:31;;;;;;;3.03;0.82;;;1.20;99.90;;;;;;5006680;28;20397;-80
2023/04/02 05:22:11;;;;;;;7.40;0.98;;;1.30;99.90;;;;;;5011784;28;20033;-81
2023/04/02 05:25:09;;;;;;;3.15;0.65;;;1.40;99.90;;;;;;5011961;28;20356;-80
2023/04/02 05:28:03;;;;;;;5.20;0.75;;;1.50;99.90;;;;;;5003361;28;20042;-80
2023/04/02 05:30:37;;;;;;;4.00;0.57;;;1.70;99.90;;;;;;4997365;28;20065;-81
2023/04/02 05:33:13;;;;;;;1.08;0.60;;;1.80;99.90;;;;;;5007706;28;20490;-80
2023/04/02 05:35:43;;;;;;;2.60;0.57;;;1.90;99.90;;;;;;5006652;28;20066;-80
2023/04/02 05:38:21;;;;;;;3.13;1.13;;;1.90;99.90;;;;;;5001375;28;20102;-79
2023/04/02 05:40:53;;;;;;;4.82;0.75;;;2.00;99.90;;;;;;5004112;28;20029;-81
2023/04/02 05:43:22;;;;;;;2.13;0.88;;;2.00;99.90;;;;;;5007268;28;20027;-81
2023/04/02 05:45:53;;;;;;;1.40;0.63;;;2.20;99.90;;;;;;5003286;28;20085;-83
2023/04/02 05:48:25;;;;;;;1.27;0.77;;;2.20;99.90;;;;;;5000780;28;20026;-81
2023/04/02 05:50:54;;;;;;;3.20;1.08;;;2.30;99.90;;;;;;5013622;28;20033;-81
2023/04/02 05:53:25;;;;;;;3.72;0.80;;;2.30;99.90;;;;;;5007835;28;20104;-82
2023/04/02 05:55:53;;;;;;;5.15;1.00;;;2.40;99.90;;;;;;5010639;28;20033;-81
2023/04/02 05:58:37;;;;;;;3.15;0.90;;;2.40;99.90;;;;;;5008932;28;20053;-81
2023/04/02 06:01:06;;;;;;;1.95;0.73;;;2.40;99.90;;;;;;5014045;28;20057;-81
2023/04/02 06:04:12;;;;;;;2.65;0.77;;;2.40;99.90;;;;;;5003975;28;20069;-81
2023/04/02 06:06:45;;;;;;;2.75;0.57;;;2.40;99.90;;;;;;5002285;28;20126;-81
2023/04/02 06:09:32;;;;;;;1.60;0.85;;;2.40;99.90;;;;;;4994444;28;20022;-81
2023/04/02 06:12:17;;;;;;;4.55;1.10;;;2.50;99.90;;;;;;5011782;28;20022;-80
2023/04/02 06:14:43;;;;;;;0.90;0.47;;;2.50;99.90;;;;;;4999934;28;20034;-81
2023/04/02 06:17:15;;;;;;;1.30;0.50;;;2.50;99.90;;;;;;5012434;28;20049;-80
2023/04/02 06:19:41;;;;;;;3.05;0.70;;;2.50;99.90;;;;;;5008199;28;20453;-82
2023/04/02 06:22:40;;;;;;;1.42;0.45;;;2.60;99.90;;;;;;5006344;28;20671;-80
2023/04/02 06:25:13;;;;;;;1.17;0.65;;;2.50;99.90;;;;;;5017134;28;20107;-80
2023/04/02 06:27:41;;;;;;;6.55;0.40;;;2.60;99.90;;;;;;5006747;28;20027;-81
2023/04/02 06:30:16;;;;;;;2.97;0.88;;;2.60;99.90;;;;;;4995060;28;20037;-82
2023/04/02 06:32:41;;;;;;;3.63;0.50;;;2.70;99.90;;;;;;5006930;28;20037;-80
2023/04/02 06:35:12;;;;;;;1.83;0.60;;;2.70;99.90;;;;;;5007263;28;20408;-80
2023/04/02 06:37:41;;;;;;;2.97;0.70;;;2.70;99.90;;;;;;5007231;28;20022;-80
2023/04/02 06:40:42;;;;;;;4.60;0.85;;;2.80;99.90;;;;;;4992216;28;20025;-81
2023/04/02 06:43:25;;;;;;;1.60;0.35;;;2.80;99.90;;;;;;5007872;28;20025;-81
2023/04/02 06:45:55;;;;;;;1.25;0.40;;;2.90;99.90;;;;;;5004104;28;20122;-82
2023/04/02 06:48:22;;;;;;;2.67;0.68;;;2.90;99.90;;;;;;5008420;28;20022;-82
2023/04/02 06:51:05;;;;;;;1.23;0.60;;;3.00;99.90;;;;;;4998572;28;20030;-82
2023/04/02 06:53:35;;;;;;;1.23;0.68;;;3.00;99.90;;;;;;5006333;28;20064;-81
2023/04/02 06:56:35;;;;;;;2.38;0.73;;;3.00;99.90;;;;;;5006229;28;20018;-82
2023/04/02 06:59:03;;;;;;;2.83;0.75;;;3.10;99.90;;;;;;5007349;28;20891;-83
2023/04/02 07:01:32;;;;;;;3.90;0.70;;;3.20;99.90;;;;;;5018882;28;20102;-82
2023/04/02 07:03:58;;;;;;;0.70;0.52;;;3.20;99.90;;;;;;5012802;28;20022;-82
2023/04/02 07:06:24;;;;;;;6.72;0.80;;;3.30;99.90;;;;;;5015291;28;20061;-81
2023/04/02 07:08:49;;;;;;;2.30;0.38;;;3.30;99.90;;;;;;5009954;28;20034;-81
2023/04/02 07:11:18;;;;;;;0.30;0.30;;;3.30;99.90;;;;;;5002805;28;20065;-82
2023/04/02 07:13:44;;;;;;;3.05;0.50;;;3.40;99.90;;;;;;5007815;28;20096;-83
2023/04/02 07:16:21;;;;;;;1.35;0.52;;;3.40;99.90;;;;;;5001121;28;20066;-82
2023/04/02 07:18:48;;;;;;;0.80;0.60;;;3.50;99.90;;;;;;5022355;28;20045;-82
2023/04/02 07:21:13;;;;;;;1.75;0.75;;;3.70;99.90;;;;;;5015948;28;20129;-81
2023/04/02 07:23:39;;;;;;;5.47;0.98;;;3.80;99.90;;;;;;5005281;28;20034;-81
2023/04/02 07:26:07;;;;;;;6.47;0.77;;;3.90;99.90;;;;;;5015768;28;20052;-82
2023/04/02 07:28:33;;;;;;;0.68;0.43;;;3.90;99.90;;;;;;5014451;28;20485;-82
2023/04/02 07:30:59;;;;;;;1.88;0.60;;;3.90;99.90;;;;;;5010199;28;20037;-83
2023/04/02 07:33:28;;;;;;;1.55;0.70;;;3.90;99.90;;;;;;5005198;28;20030;-81
2023/04/02 07:35:56;;;;;;;4.57;0.77;;;3.90;99.90;;;;;;5004427;28;20061;-81
2023/04/02 07:38:21;;;;;;;0.90;0.52;;;3.90;99.90;;;;;;5019273;28;20015;-83
2023/04/02 07:40:47;;;;;;;2.08;0.80;;;4.00;99.90;;;;;;5002322;28;20033;-83
2023/04/02 07:43:13;;;;;;;3.50;1.10;;;4.20;99.90;;;;;;5011268;28;20112;-83
2023/04/02 07:45:38;;;;;;;2.55;0.40;;;4.50;99.90;;;;;;5040638;28;20022;-83
2023/04/02 07:48:09;;;;;;;0.52;0.35;;;4.70;99.90;;;;;;5010248;28;20022;-83
2023/04/02 07:50:35;;;;;;;4.93;1.08;;;4.70;99.90;;;;;;5002704;28;20033;-84
2023/04/02 07:53:01;;;;;;;1.67;0.63;;;4.80;99.90;;;;;;5005544;28;20041;-82
2023/04/02 07:55:27;;;;;;;3.30;0.73;;;4.80;99.90;;;;;;5001337;28;20022;-83
2023/04/02 07:57:55;;;;;;;2.25;0.60;;;4.90;99.90;;;;;;5002452;28;20023;-83
2023/04/02 08:00:22;;;;;;;1.70;0.40;;;5.00;99.90;;;;;;5007637;28;20096;-83
2023/04/02 08:02:48;;;;;;;2.55;0.55;;;5.10;99.90;;;;;;4998733;28;20030;-84
2023/04/02 08:05:14;;;;;;;3.33;0.70;;;5.20;99.90;;;;;;5002210;28;20041;-85
2023/04/02 08:07:40;;;;;;;2.28;0.82;;;5.20;99.90;;;;;;4994361;28;20489;-84
2023/04/02 08:10:08;;;;;;;3.35;0.68;;;5.30;99.90;;;;;;5008092;28;20033;-83
2023/04/02 08:12:34;;;;;;;1.55;0.60;;;5.30;99.90;;;;;;4992604;28;20034;-84
2023/04/02 08:15:00;;;;;;;1.73;0.32;;;5.30;99.90;;;;;;4999389;28;20041;-83
2023/04/02 08:17:30;;;;;;;0.93;0.50;;;5.30;99.90;;;;;;5013581;28;20034;-83
2023/04/02 08:19:59;;;;;;;0.95;0.50;;;5.20;99.90;;;;;;5014104;28;20413;-81
2023/04/02 08:22:26;;;;;;;0.38;0.22;;;5.50;99.90;;;;;;5014061;28;20018;-84
2023/04/02 08:24:52;;;;;;;0.50;0.32;;;5.70;99.90;;;;;;5017457;28;20469;-84
2023/04/02 08:27:18;;;;;;;4.25;0.60;;;5.90;99.90;;;;;;5031578;28;20033;-83
2023/04/02 08:29:43;;;;;;;1.88;0.70;;;5.90;99.90;;;;;;5008522;28;20113;-83
2023/04/02 08:32:14;;;;;;;1.35;0.55;;;6.00;99.90;;;;;;5016717;28;20065;-83
2023/04/02 08:34:40;;;;;;;1.10;0.40;;;6.00;99.90;;;;;;5008838;28;20026;-85
2023/04/02 08:37:06;;;;;;;0.75;0.40;;;6.10;99.90;;;;;;5012763;28;20052;-83
2023/04/02 08:39:34;;;;;;;1.90;0.60;;;6.20;99.90;;;;;;5028450;28;20506;-85
2023/04/02 08:42:23;;;;;;;1.15;0.20;;;6.30;99.90;;;;;;5020998;28;20030;-83
2023/04/02 08:45:05;;;;;;;3.13;0.50;;;6.10;99.90;;;;;;5010840;28;20026;-85
2023/04/02 08:47:35;;;;;;;4.75;0.63;;;5.90;99.90;;;;;;5001959;28;20405;-84
2023/04/02 08:50:06;;;;;;;3.40;0.38;;;6.00;99.90;;;;;;5014490;28;20057;-84
2023/04/02 08:52:36;;;;;;;1.75;0.40;;;6.20;99.90;;;;;;5016244;28;20430;-84
2023/04/02 08:55:03;;;;;;;2.00;0.90;;;6.40;99.90;;;;;;5017673;28;20034;-85
2023/04/02 08:57:58;;;;;;;6.35;0.90;;;6.60;99.90;;;;;;5010327;28;20481;-84
2023/04/02 09:00:35;;;;;;;0.80;0.55;;;6.60;99.90;;;;;;5014153;28;20056;-83
2023/04/02 09:03:20;;;;;;;1.65;0.73;;;6.40;99.90;;;;;;5022797;28;20029;-84
2023/04/02 09:05:48;;;;;;;4.10;0.38;;;6.30;99.90;;;;;;5015305;28;20052;-83
2023/04/02 09:08:24;;;;;;;2.00;0.40;;;6.30;99.90;;;;;;5013421;28;20031;-84
2023/04/02 09:10:53;;;;;;;1.30;0.60;;;6.30;99.90;;;;;;5002329;28;20018;-82
2023/04/02 09:13:24;;;;;;;1.08;0.60;;;6.30;99.90;;;;;;5016412;28;20082;-84
2023/04/02 09:16:07;;;;;;;3.50;0.85;;;6.50;99.90;;;;;;5017847;28;20046;-84
2023/04/02 09:18:33;;;;;;;1.58;0.65;;;6.80;99.90;;;;;;5005303;28;20022;-84
2023/04/02 09:21:19;;;;;;;1.30;0.80;;;6.90;99.90;;;;;;5017272;28;20568;-83
2023/04/02 09:23:46;;;;;;;0.73;0.40;;;7.00;99.90;;;;;;5013944;28;20539;-84
2023/04/02 09:26:27;;;;;;;1.10;0.47;;;7.00;99.90;;;;;;5014405;28;20044;-84
2023/04/02 09:29:11;;;;;;;3.20;0.73;;;6.70;99.90;;;;;;5016348;28;20034;-84
2023/04/02 09:31:42;;;;;;;2.03;0.70;;;6.40;99.90;;;;;;5011948;28;20046;-83
2023/04/02 09:34:28;;;;;;;1.88;0.68;;;6.30;99.90;;;;;;5002100;28;20029;-84
2023/04/02 09:36:55;;;;;;;3.45;0.93;;;6.00;99.90;;;;;;5013251;28;20029;-85
2023/04/02 09:39:25;;;;;;;3.85;0.40;;;5.90;99.90;;;;;;5009548;28;20029;-83
2023/04/02 09:41:51;;;;;;;5.78;0.40;;;5.80;99.90;;;;;;5001651;28;20026;-84
2023/04/02 09:44:25;;;;;;;3.85;0.77;;;5.90;99.90;;;;;;5005287;28;20018;-83
2023/04/02 09:47:02;;;;;;;0.75;0.40;;;6.10;99.90;;;;;;5001678;28;20129;-84
2023/04/02 09:49:38;;;;;;;1.75;0.82;;;6.20;99.90;;;;;;5011641;28;20030;-83
2023/04/02 09:52:24;;;;;;;2.25;0.70;;;6.50;99.90;;;;;;5010589;28;20113;-84
2023/04/02 09:55:21;;;;;;;1.85;0.57;;;6.70;99.90;;;;;;5010685;28;20114;-85
2023/04/02 09:57:49;;;;;;;0.75;0.40;;;6.80;99.90;;;;;;5009640;28;20026;-83
2023/04/02 10:00:18;;;;;;;1.17;0.38;;;6.80;99.90;;;;;;4994890;28;20509;-85
2023/04/02 10:02:46;;;;;;;0.30;0.20;;;6.80;99.90;;;;;;5004492;28;20023;-83
2023/04/02 10:05:19;;;;;;;1.45;0.43;;;6.70;99.30;;;;;;4995820;28;20497;-81
2023/04/02 10:07:51;;;;;;;1.17;0.28;;;6.90;99.90;;;;;;5009487;28;20516;-86
2023/04/02 10:10:30;;;;;;;3.08;0.70;;;7.00;99.10;;;;;;4994236;28;20030;-81
2023/04/02 10:13:17;;;;;;;0.15;0.13;;;6.90;99.60;;;;;;5000998;28;20062;-84
2023/04/02 10:15:52;;;;;;;3.10;0.30;;;6.90;99.90;;;;;;5008175;28;20045;-84
2023/04/02 10:18:49;;;;;;;0.73;0.28;;;7.20;99.90;;;;;;5001811;28;20098;-83
2023/04/02 10:21:22;;;;;;;;;;;7.30;99.90;;;;;;5004200;28;20088;-84
2023/04/02 10:23:47;;;;;;;2.65;0.60;;;7.30;98.70;;;;;;5008961;28;20000;-84
2023/04/02 10:26:35;;;;;;;0.32;0.30;;;7.40;98.40;;;;;;5014216;28;20049;-84
2023/04/02 10:29:40;;;;;;;0.40;0.30;;;7.40;96.70;;;;;;5007114;28;20026;-85
2023/04/02 10:32:17;;;;;;;0.43;0.40;;;7.20;94.80;;;;;;5014346;28;20029;-84
2023/04/02 10:34:57;;;;;;;1.30;0.38;;;7.00;97.40;;;;;;5014459;28;20029;-85
2023/04/02 10:37:51;;;;;;;3.35;0.65;;;7.10;99.40;;;;;;5023156;28;20045;-83
2023/04/02 10:40:28;;;;;;;0.57;0.47;;;7.30;99.90;;;;;;5003014;28;20033;-83
2023/04/02 10:42:56;;;;;;;1.38;0.50;;;7.40;99.30;;;;;;5012768;28;20034;-84
2023/04/02 10:45:46;;;;;;;1.98;0.52;;;7.40;99.90;;;;;;5010631;28;20108;-84
2023/04/02 10:48:20;;;;;;;4.20;0.80;;;7.30;98.40;;;;;;4997468;28;20485;-83
2023/04/02 10:51:10;;;;;;;2.80;0.50;;;7.20;99.60;;;;;;5007561;28;20037;-84
2023/04/02 10:53:52;;;;;;;1.88;1.05;;;7.40;99.90;;;;;;5006349;28;20037;-83
2023/04/02 10:56:17;;;;;;;3.35;0.82;;;7.40;99.30;;;;;;4989448;28;20019;-83
2023/04/02 10:59:05;;;;;;;2.55;0.40;;;7.30;98.40;;;;;;5011546;28;20029;-83
2023/04/02 11:01:33;;;;;;;2.70;0.80;;;7.20;99.20;;;;;;4986902;28;20041;-80
2023/04/02 11:04:13;;;;;;;1.38;0.50;;;7.00;99.90;;;;;;4990958;28;20122;-84
2023/04/02 11:06:51;;;;;;;2.42;0.75;;;6.80;99.90;;;;;;5004292;28;20041;-84
2023/04/02 11:09:24;;;;;;;2.05;0.50;;;6.80;99.90;;;;;;4997443;28;20018;-83
2023/04/02 11:11:54;;;;;;;5.68;0.90;;;6.70;99.90;;;;;;5017653;28;20388;-83
2023/04/02 11:14:24;;;;;;;0.88;0.57;;;6.60;99.90;;;;;;5013805;28;20054;-83
2023/04/02 11:16:52;;;;;;;1.58;0.50;;;6.60;99.90;;;;;;5007791;28;20030;-83
2023/04/02 11:19:25;;;;;;;2.25;0.52;;;6.70;99.90;;;;;;5012277;28;20037;-84
2023/04/02 11:22:19;;;;;;;0.98;0.45;;;7.00;99.90;;;;;;5013536;28;20084;-83
2023/04/02 11:24:48;;;;;;;1.25;0.60;;;7.10;99.90;;;;;;5009599;28;20057;-83
2023/04/02 11:27:19;;;;;;;3.08;0.75;;;7.00;99.00;;;;;;5010123;28;20030;-84
2023/04/02 11:29:58;;;;;;;0.65;0.43;;;7.10;99.20;;;;;;5010094;28;20034;-83
2023/04/02 11:32:38;;;;;;;1.27;0.73;;;7.20;99.20;;;;;;5014808;28;20036;-83
2023/04/02 11:35:31;;;;;;;1.67;0.50;;;7.30;97.80;;;;;;5009114;28;20405;-82
2023/04/02 11:38:21;;;;;;;1.08;0.55;;;7.40;96.10;;;;;;5007524;28;20454;-82
2023/04/02 11:40:57;;;;;;;0.75;0.20;;;7.40;96.20;;;;;;5009779;28;20026;-84
2023/04/02 11:43:31;;;;;;;0.90;0.28;;;7.30;97.30;;;;;;5014336;28;20025;-83
2023/04/02 11:45:59;;;;;;;0.50;0.25;;;7.30;95.10;;;;;;5007520;28;20033;-83
2023/04/02 11:48:36;;;;;;;4.13;0.73;;;7.20;93.90;;;;;;5007870;28;20033;-85
2023/04/02 11:51:21;;;;;;;4.50;0.50;;;7.00;95.00;;;;;;5007648;28;20025;-83
2023/04/02 11:53:52;;;;;;;1.00;0.70;;;6.90;97.80;;;;;;4990560;28;20038;-83
2023/04/02 11:56:38;;;;;;;2.17;0.30;;;6.90;95.50;;;;;;5008837;28;20041;-83
2023/04/02 11:59:45;;;;;;;2.40;0.60;;;7.00;94.50;;;;;;5003556;28;20042;-83
2023/04/02 12:02:28;;;;;;;0.77;0.52;;;7.00;98.80;;;;;;4970139;28;20113;-83
2023/04/02 12:05:08;;;;;;;1.02;0.47;;;7.00;98.60;;;;;;5005015;28;20026;-83
2023/04/02 12:07:51;;;;;;;1.35;0.57;;;7.10;97.60;;;;;;5005244;28;20033;-82
2023/04/02 12:10:40;;;;;;;0.88;0.60;;;7.10;96.30;;;;;;5001028;28;20426;-81
2023/04/02 12:13:36;;;;;;;0.73;0.30;;;7.10;96.30;;;;;;5000665;28;20631;-83
2023/04/02 12:16:02;;;;;;;0.80;0.30;;;7.20;96.70;;;;;;5016537;28;20042;-84
2023/04/02 12:18:28;;;;;;;0.85;0.40;;;7.30;95.90;;;;;;5004144;28;20037;-83
2023/04/02 12:20:55;;;;;;;1.30;0.57;;;7.30;93.60;;;;;;5004250;28;20022;-83
2023/04/02 12:23:30;;;;;;;0.28;0.22;;;7.30;93.60;;;;;;5010500;28;20021;-83
2023/04/02 12:26:02;;;;;;;1.00;0.25;;;7.30;91.30;;;;;;5011844;28;20019;-84
2023/04/02 12:28:30;;;;;;;0.38;0.25;;;7.30;91.60;;;;;;4999456;28;20082;-83
2023/04/02 12:31:16;;;;;;;1.25;0.47;;;7.10;93.20;;;;;;4991282;28;20030;-82
2023/04/02 12:33:42;;;;;;;0.73;0.17;;;7.10;94.10;;;;;;4999949;28;20038;-84
2023/04/02 12:36:12;;;;;;;0.22;0.10;;;7.20;85.80;;;;;;4994803;28;20161;-81
2023/04/02 12:38:50;;;;;;;0.57;0.45;;;7.10;89.60;;;;;;5002547;28;20182;-83
2023/04/02 12:41:23;;;;;;;0.28;0.20;;;7.20;90.80;;;;;;4999274;28;20022;-83
2023/04/02 12:43:59;;;;;;;0.47;0.47;;;7.20;88.70;;;;;;5006959;28;20151;-82
2023/04/02 12:46:26;;;;;;;0.50;0.32;;;7.10;91.60;;;;;;4992393;28;20030;-83
2023/04/02 12:48:54;;;;;;;0.90;0.20;;;7.20;92.50;;;;;;4999727;28;20033;-81
2023/04/02 12:51:20;;;;;;;0.77;0.13;;;7.30;93.20;;;;;;4994758;28;20037;-82
2023/04/02 12:53:51;;;;;;;0.63;0.20;;;7.40;92.80;;;;;;5001281;28;20485;-83
2023/04/02 12:56:22;;;;;;;1.45;0.40;;;7.40;91.90;;;;;;5000755;28;20069;-82
2023/04/02 12:58:58;;;;;;;1.10;0.40;;;7.30;90.30;;;;;;5002521;28;20030;-83
2023/04/02 13:01:30;;;;;;;0.30;0.17;;;7.20;92.30;;;;;;4998991;28;20061;-82
2023/04/02 13:04:02;;;;;;;0.30;0.20;;;7.20;95.20;;;;;;4997368;28;20132;-82
2023/04/02 13:06:29;;;;;;;0.55;0.20;;;7.30;93.10;;;;;;5005436;28;20066;-83
2023/04/02 13:08:55;;;;;;;1.65;0.20;;;7.20;88.90;;;;;;5000388;28;20464;-82
2023/04/02 13:11:22;;;;;;;2.67;0.63;;;7.00;89.90;;;;;;5010209;28;20101;-81
2023/04/02 13:13:48;;;;;;;1.40;0.50;;;7.10;88.70;;;;;;5007339;28;20505;-82
2023/04/02 13:16:14;;;;;;;0.35;0.22;;;7.10;90.70;;;;;;5005171;28;20034;-82
2023/04/02 13:18:41;;;;;;;0.52;0.30;;;7.20;91.70;;;;;;5002694;28;20274;-82
2023/04/02 13:21:15;;;;;;;0.20;0.13;;;7.10;91.50;;;;;;4994128;28;20129;-83
2023/04/02 13:23:42;;;;;;;0.47;0.10;;;7.10;92.10;;;;;;5005626;28;20536;-83
2023/04/02 13:26:11;;;;;;;0.10;0.10;;;7.20;90.80;;;;;;5009343;28;20025;-83
2023/04/02 13:28:37;;;;;;;2.28;0.50;;;7.20;89.20;;;;;;5006882;28;20029;-83
2023/04/02 13:31:02;;;;;;;1.13;0.32;;;7.20;90.60;;;;;;5004382;28;20033;-82
2023/04/02 13:33:28;;;;;;;0.50;0.22;;;7.10;90.70;;;;;;5011127;28;20030;-83
2023/04/02 13:35:53;;;;;;;0.43;0.40;;;7.10;90.90;;;;;;5006111;28;20105;-82
2023/04/02 13:38:19;;;;;;;0.75;0.40;;;7.00;88.10;;;;;;5010957;28;20014;-83